Time;durP1;ratioP1;P1;durP2;ratioP2;P2;SDS_P1;SDS_P2;PMS_P1;PMS_P2;Temp;Humidity;BMP_temperature;BMP_pressure;BME280_temperature;BME280_humidity;BME280_pressure;Samples;Min_cycle;Max_cycle;Signal;HPM_P1;HPM_P2
2022/05/19 00:02:12;;;;;;;20.20;13.60;;;;;;;13.81;100.00;101914.19;5009907;28;20053;-80
2022/05/19 00:04:38;;;;;;;19.05;13.85;;;;;;;13.79;100.00;101906.28;5029584;28;20059;-80
2022/05/19 00:07:04;;;;;;;22.63;14.80;;;;;;;13.78;100.00;101899.22;5028681;28;20059;-81
2022/05/19 00:09:30;;;;;;;18.33;13.23;;;;;;;13.78;100.00;101907.19;4995551;28;20067;-80
2022/05/19 00:11:58;;;;;;;20.30;13.98;;;;;;;13.74;100.00;101896.75;5006705;28;20075;-79
2022/05/19 00:14:24;;;;;;;17.75;13.07;;;;;;;13.69;100.00;101894.31;5032666;28;20130;-80
2022/05/19 00:16:49;;;;;;;18.05;13.85;;;;;;;13.66;100.00;101895.28;5012424;28;20529;-80
2022/05/19 00:19:15;;;;;;;16.75;12.52;;;;;;;13.66;100.00;101884.66;5033643;28;20043;-80
2022/05/19 00:21:41;;;;;;;20.85;13.13;;;;;;;13.64;100.00;101880.31;5014413;28;20033;-80
2022/05/19 00:24:07;;;;;;;20.40;13.75;;;;;;;13.61;100.00;101877.78;5013364;28;20134;-80
2022/05/19 00:26:33;;;;;;;19.38;12.45;;;;;;;13.60;100.00;101884.91;5030787;28;20041;-80
2022/05/19 00:28:58;;;;;;;18.23;13.15;;;;;;;13.60;100.00;101870.72;5029313;28;20603;-80
2022/05/19 00:31:26;;;;;;;22.52;13.70;;;;;;;13.58;100.00;101866.31;5015446;28;20621;-80
2022/05/19 00:33:51;;;;;;;20.25;14.07;;;;;;;13.55;100.00;101861.16;5032031;28;20040;-80
2022/05/19 00:36:19;;;;;;;21.40;14.43;;;;;;;13.55;100.00;101862.94;5013388;28;20032;-79
2022/05/19 00:38:45;;;;;;;19.73;14.10;;;;;;;13.52;100.00;101861.25;5016200;28;20116;-78
2022/05/19 00:41:11;;;;;;;20.73;14.32;;;;;;;13.52;100.00;101860.41;5023711;28;20033;-79
2022/05/19 00:43:40;;;;;;;23.33;14.70;;;;;;;13.54;100.00;101861.22;5033908;28;20035;-80
2022/05/19 00:46:20;;;;;;;19.38;14.10;;;;;;;13.57;100.00;101853.13;5014388;28;20029;-80
2022/05/19 00:48:54;;;;;;;20.00;14.30;;;;;;;13.58;100.00;101850.38;5006087;28;20126;-80
2022/05/19 00:51:23;;;;;;;21.92;14.63;;;;;;;13.58;100.00;101847.72;5032969;28;20488;-81
2022/05/19 00:53:56;;;;;;;20.85;14.05;;;;;;;13.61;100.00;101844.06;5033658;28;20040;-80
2022/05/19 00:56:29;;;;;;;22.35;14.73;;;;;;;13.61;100.00;101846.72;5031952;28;20118;-80
2022/05/19 00:59:07;;;;;;;21.52;14.63;;;;;;;13.61;100.00;101841.41;5031530;28;20037;-80
2022/05/19 01:01:35;;;;;;;25.60;15.07;;;;;;;13.62;100.00;101834.28;5033303;28;20033;-80
2022/05/19 01:04:10;;;;;;;22.98;15.23;;;;;;;13.63;100.00;101838.69;5032126;28;20032;-79
2022/05/19 01:06:37;;;;;;;23.95;15.85;;;;;;;13.63;100.00;101828.91;5023181;28;21032;-80
2022/05/19 01:09:13;;;;;;;21.67;15.07;;;;;;;13.64;100.00;101820.00;5032344;28;20108;-80
2022/05/19 01:11:39;;;;;;;23.35;14.93;;;;;;;13.66;100.00;101819.91;5014197;28;20061;-79
2022/05/19 01:14:05;;;;;;;22.20;15.63;;;;;;;13.67;100.00;101822.50;5015610;28;20517;-78
2022/05/19 01:16:31;;;;;;;26.02;15.60;;;;;;;13.68;100.00;101812.75;5015370;28;20049;-79
2022/05/19 01:18:57;;;;;;;23.20;16.27;;;;;;;13.71;100.00;101809.94;5031791;28;20075;-79
2022/05/19 01:21:27;;;;;;;21.10;15.40;;;;;;;13.74;100.00;101801.84;5024232;28;20044;-78
2022/05/19 01:24:01;;;;;;;21.58;15.18;;;;;;;13.74;100.00;101800.97;5012021;28;20154;-80
2022/05/19 01:26:39;;;;;;;22.30;15.15;;;;;;;13.74;100.00;101798.28;5015291;28;20029;-80
2022/05/19 01:29:04;;;;;;;26.45;15.10;;;;;;;13.74;100.00;101800.97;5030741;28;20051;-80
2022/05/19 01:31:36;;;;;;;21.30;15.57;;;;;;;13.74;100.00;101791.19;5016054;28;20597;-80
2022/05/19 01:34:04;;;;;;;21.00;15.88;;;;;;;13.71;100.00;101784.19;5031013;28;20029;-81
2022/05/19 01:36:30;;;;;;;23.33;15.80;;;;;;;13.69;100.00;101778.06;5031880;28;20068;-80
2022/05/19 01:39:02;;;;;;;23.08;16.02;;;;;;;13.68;100.00;101770.16;5029958;28;20123;-79
2022/05/19 01:41:54;;;;;;;22.88;15.73;;;;;;;13.67;100.00;101782.59;5014880;28;20055;-79
2022/05/19 01:44:19;;;;;;;25.17;16.33;;;;;;;13.69;100.00;101794.03;5023862;28;20406;-78
2022/05/19 01:46:49;;;;;;;22.00;16.17;;;;;;;13.75;100.00;101773.41;5030266;28;20041;-79
2022/05/19 01:49:38;;;;;;;23.92;17.02;;;;;;;13.84;100.00;101759.72;5013133;28;20029;-79
2022/05/19 01:52:21;;;;;;;29.27;17.70;;;;;;;13.93;100.00;101756.63;5012065;28;20056;-80
2022/05/19 01:55:09;;;;;;;26.35;16.98;;;;;;;14.01;100.00;101752.75;5019203;28;20041;-79
2022/05/19 01:57:39;;;;;;;26.38;17.75;;;;;;;14.06;100.00;101748.09;5007414;28;20068;-79
2022/05/19 02:00:08;;;;;;;26.38;17.58;;;;;;;14.09;100.00;101738.16;5014113;28;20033;-79
2022/05/19 02:02:44;;;;;;;25.38;17.23;;;;;;;14.12;100.00;101735.34;5030850;28;20029;-80
2022/05/19 02:05:19;;;;;;;25.98;15.90;;;;;;;14.13;100.00;101738.88;5016868;28;20037;-79
2022/05/19 02:07:48;;;;;;;25.90;16.60;;;;;;;14.15;100.00;101731.69;5011125;28;20036;-79
2022/05/19 02:10:30;;;;;;;27.90;17.65;;;;;;;14.20;100.00;101729.66;5031031;28;20032;-79
2022/05/19 02:12:58;;;;;;;23.07;16.13;;;;;;;14.23;100.00;101729.50;5031056;28;20047;-80
2022/05/19 02:15:25;;;;;;;25.90;17.38;;;;;;;14.29;100.00;101724.84;5029952;28;20676;-81
2022/05/19 02:17:52;;;;;;;26.65;17.63;;;;;;;14.29;100.00;101717.72;5012651;28;20120;-80
2022/05/19 02:20:23;;;;;;;23.08;16.30;;;;;;;14.30;100.00;101723.91;5032741;28;20033;-80
2022/05/19 02:22:49;;;;;;;23.27;15.90;;;;;;;14.31;100.00;101728.28;4996069;28;20032;-79
2022/05/19 02:25:28;;;;;;;24.02;16.17;;;;;;;14.33;100.00;101729.09;5033246;28;20134;-79
2022/05/19 02:27:59;;;;;;;23.10;15.70;;;;;;;14.35;100.00;101730.75;5030916;28;20041;-79
2022/05/19 02:30:27;;;;;;;22.80;15.88;;;;;;;14.39;100.00;101728.81;5031919;28;20160;-79
2022/05/19 02:32:53;;;;;;;22.48;15.27;;;;;;;14.41;100.00;101726.94;5031959;28;20454;-81
2022/05/19 02:35:19;;;;;;;24.83;15.90;;;;;;;14.45;100.00;101723.19;5014803;28;20095;-78
2022/05/19 02:37:45;;;;;;;22.58;16.02;;;;;;;14.48;100.00;101732.81;5001294;28;20972;-78
2022/05/19 02:40:13;;;;;;;22.40;15.52;;;;;;;14.50;100.00;101729.13;5034214;28;20403;-78
2022/05/19 02:42:38;;;;;;;22.58;15.40;;;;;;;14.52;100.00;101729.06;5016677;28;20155;-79
2022/05/19 02:45:04;;;;;;;21.02;14.98;;;;;;;14.56;100.00;101724.47;5035399;28;20463;-78
2022/05/19 02:47:30;;;;;;;21.75;15.05;;;;;;;14.58;100.00;101717.25;5017664;28;20033;-78
2022/05/19 02:49:56;;;;;;;23.60;15.88;;;;;;;14.60;100.00;101716.22;5018594;28;21384;-79
2022/05/19 02:52:21;;;;;;;19.20;14.10;;;;;;;14.61;100.00;101725.94;5032467;28;20045;-78
2022/05/19 02:54:47;;;;;;;23.52;15.00;;;;;;;14.65;100.00;101718.66;5015243;28;20728;-78
2022/05/19 02:57:12;;;;;;;18.17;13.90;;;;;;;14.66;100.00;101710.59;5035117;28;20043;-78
2022/05/19 02:59:38;;;;;;;22.02;14.80;;;;;;;14.68;100.00;101707.88;5017904;28;20032;-78
2022/05/19 03:02:04;;;;;;;22.60;14.98;;;;;;;14.70;100.00;101706.00;5034388;28;20132;-78
2022/05/19 03:04:30;;;;;;;23.33;14.77;;;;;;;14.73;100.00;101708.53;5032628;28;20507;-78
2022/05/19 03:06:55;;;;;;;22.50;14.10;;;;;;;14.76;100.00;101711.06;5034667;28;20174;-78
2022/05/19 03:09:21;;;;;;;23.40;15.30;;;;;;;14.78;100.00;101703.84;5033830;28;20033;-79
2022/05/19 03:11:47;;;;;;;21.55;14.95;;;;;;;14.82;100.00;101698.38;5034429;28;20041;-78
2022/05/19 03:14:13;;;;;;;20.38;14.02;;;;;;;14.84;100.00;101696.47;5024307;28;20762;-79
2022/05/19 03:16:39;;;;;;;21.73;14.90;;;;;;;14.87;100.00;101704.34;5033743;28;20099;-78
2022/05/19 03:19:05;;;;;;;23.52;15.30;;;;;;;14.89;100.00;101702.44;5034506;28;20032;-78
2022/05/19 03:21:31;;;;;;;21.83;15.43;;;;;;;14.90;100.00;101702.38;5014382;28;20497;-78
2022/05/19 03:23:56;;;;;;;22.77;15.20;;;;;;;14.94;100.00;101697.75;5036006;28;20028;-78
2022/05/19 03:26:22;;;;;;;25.02;15.38;;;;;;;14.97;100.00;101691.41;5016160;28;20024;-78
2022/05/19 03:28:48;;;;;;;21.90;14.38;;;;;;;14.98;100.00;101688.66;5034152;28;20039;-78
2022/05/19 03:31:13;;;;;;;22.17;15.05;;;;;;;15.00;100.00;101694.78;5016838;28;20017;-79
2022/05/19 03:33:39;;;;;;;21.23;14.90;;;;;;;15.03;100.00;101701.78;5036683;28;20056;-79
2022/05/19 03:36:05;;;;;;;21.85;14.98;;;;;;;15.04;100.00;101693.66;5034672;28;20029;-78
2022/05/19 03:38:31;;;;;;;23.00;15.75;;;;;;;15.06;100.00;101697.16;5001714;28;20415;-80
2022/05/19 03:40:56;;;;;;;22.95;15.50;;;;;;;15.10;100.00;101696.97;5016454;28;20108;-79
2022/05/19 03:43:22;;;;;;;24.95;15.98;;;;;;;15.12;100.00;101689.75;5015000;28;20056;-76
2022/05/19 03:45:48;;;;;;;23.80;15.88;;;;;;;15.13;100.00;101683.47;5035709;28;20025;-78
2022/05/19 03:48:14;;;;;;;25.73;16.35;;;;;;;15.13;100.00;101670.13;4990641;28;20605;-80
2022/05/19 03:50:43;;;;;;;22.15;15.85;;;;;;;15.11;100.00;101672.03;5032143;28;20387;-79
2022/05/19 03:53:09;;;;;;;22.77;16.55;;;;;;;15.10;100.00;101665.84;5034444;28;20052;-78
2022/05/19 03:55:34;;;;;;;24.65;16.15;;;;;;;15.10;100.00;101670.31;5034426;28;20037;-78
2022/05/19 03:58:00;;;;;;;24.08;15.73;;;;;;;15.10;100.00;101659.63;5017181;28;20594;-78
2022/05/19 04:00:25;;;;;;;25.13;16.77;;;;;;;15.10;100.00;101665.84;5032757;28;20037;-77
2022/05/19 04:02:51;;;;;;;24.45;17.20;;;;;;;15.09;100.00;101657.91;5034009;28;20041;-78
2022/05/19 04:05:17;;;;;;;23.70;16.48;;;;;;;15.10;100.00;101655.19;5033457;28;20951;-78
2022/05/19 04:07:42;;;;;;;25.25;16.73;;;;;;;15.10;100.00;101651.63;5017506;28;20736;-78
2022/05/19 04:10:09;;;;;;;23.95;15.93;;;;;;;15.10;100.00;101648.97;5036140;28;20551;-78
2022/05/19 04:12:35;;;;;;;25.75;17.83;;;;;;;15.12;100.00;101644.41;5036198;28;20052;-76
2022/05/19 04:15:01;;;;;;;27.80;17.30;;;;;;;15.14;100.00;101646.06;5014491;28;20037;-78
2022/05/19 04:17:26;;;;;;;27.85;17.77;;;;;;;15.17;100.00;101639.72;5017644;28;20044;-78
2022/05/19 04:19:52;;;;;;;25.77;17.40;;;;;;;15.21;100.00;101646.63;5036253;28;20056;-79
2022/05/19 04:22:17;;;;;;;27.95;17.75;;;;;;;15.27;100.00;101648.97;5018290;28;20200;-77
2022/05/19 04:24:43;;;;;;;27.42;18.05;;;;;;;15.29;100.00;101687.09;5050626;28;20037;-76
2022/05/19 04:27:11;;;;;;;26.80;17.90;;;;;;;15.32;100.00;101692.25;5062029;28;20039;-78
2022/05/19 04:29:37;;;;;;;30.60;18.38;;;;;;;15.34;100.00;101687.72;5046672;28;20056;-77
2022/05/19 04:32:03;;;;;;;31.88;19.02;;;;;;;15.36;100.00;101678.75;5013423;28;20024;-77
2022/05/19 04:34:29;;;;;;;28.25;18.05;;;;;;;15.37;100.00;101677.81;5032417;28;20044;-78
2022/05/19 04:36:54;;;;;;;26.35;18.05;;;;;;;15.38;100.00;101690.19;5033402;28;20037;-76
2022/05/19 04:39:20;;;;;;;36.58;19.55;;;;;;;15.41;100.00;101684.72;5015575;28;20562;-76
2022/05/19 04:41:46;;;;;;;25.65;18.65;;;;;;;15.47;100.00;101679.03;5012845;28;20086;-76
2022/05/19 04:44:11;;;;;;;32.08;19.20;;;;;;;15.51;100.00;101685.09;5032047;28;20087;-77
2022/05/19 04:46:37;;;;;;;32.60;19.80;;;;;;;15.54;100.00;101712.50;5031393;28;20056;-77
2022/05/19 04:49:02;;;;;;;30.52;19.42;;;;;;;15.57;100.00;101731.00;5015829;28;20113;-77
2022/05/19 04:51:28;;;;;;;26.77;17.83;;;;;;;15.59;100.00;101752.28;5009255;28;20380;-77
2022/05/19 04:53:53;;;;;;;31.33;19.55;;;;;;;15.61;100.00;101761.94;5033423;28;20473;-77
2022/05/19 04:56:19;;;;;;;23.70;17.15;;;;;;;15.66;100.00;101791.03;5035336;28;20086;-78
2022/05/19 04:58:44;;;;;;;30.17;17.88;;;;;;;15.77;100.00;101797.59;5035523;28;20033;-78
2022/05/19 05:01:10;;;;;;;27.10;18.45;;;;;;;15.87;100.00;101809.53;5030674;28;20052;-80
2022/05/19 05:03:35;;;;;;;26.65;17.88;;;;;;;15.97;100.00;101810.81;5016771;28;20056;-79
2022/05/19 05:06:01;;;;;;;26.65;16.95;;;;;;;16.05;100.00;101807.72;5016621;28;20616;-79
2022/05/19 05:08:26;;;;;;;24.73;17.70;;;;;;;16.12;100.00;101806.47;5035341;28;20067;-78
2022/05/19 05:10:52;;;;;;;29.15;17.92;;;;;;;16.20;100.00;101806.06;5017289;28;20470;-80
2022/05/19 05:13:18;;;;;;;28.83;18.23;;;;;;;16.27;100.00;101801.22;5017457;28;20032;-79
2022/05/19 05:15:43;;;;;;;24.33;15.95;;;;;;;16.34;100.00;101796.44;5035042;28;20076;-78
2022/05/19 05:18:10;;;;;;;24.20;15.50;;;;;;;16.45;100.00;101814.53;5035109;28;20454;-78
2022/05/19 05:20:37;;;;;;;20.83;13.98;;;;;;;16.55;100.00;101813.94;5014555;28;20037;-78
2022/05/19 05:23:03;;;;;;;20.80;14.07;;;;;;;16.62;100.00;101819.78;5035200;28;20029;-79
2022/05/19 05:25:30;;;;;;;24.20;15.75;;;;;;;16.66;100.00;101809.78;5013965;28;20033;-79
2022/05/19 05:27:57;;;;;;;24.80;16.67;;;;;;;16.64;100.00;101801.88;5032577;28;20394;-78
2022/05/19 05:30:23;;;;;;;29.60;17.15;;;;;;;16.59;100.00;101805.72;5031947;28;20029;-79
2022/05/19 05:32:48;;;;;;;26.60;17.17;;;;;;;16.48;100.00;101799.19;5032370;28;20220;-79
2022/05/19 05:35:14;;;;;;;28.25;17.52;;;;;;;16.35;100.00;101809.69;5022276;28;20033;-80
2022/05/19 05:37:40;;;;;;;26.17;16.33;;;;;;;16.23;100.00;101826.41;5030551;28;20418;-78
2022/05/19 05:40:10;;;;;;;26.48;16.67;;;;;;;16.15;100.00;101826.81;5033838;28;20039;-81
2022/05/19 05:42:37;;;;;;;25.25;17.10;;;;;;;16.09;100.00;101841.34;5031877;28;20064;-80
2022/05/19 05:45:04;;;;;;;28.08;17.90;;;;;;;16.05;100.00;101839.78;5033083;28;20033;-81
2022/05/19 05:47:29;;;;;;;26.73;16.27;;;;;;;16.04;100.00;101834.50;5033270;28;20116;-80
2022/05/19 05:49:55;;;;;;;25.23;15.57;;;;;;;16.02;100.00;101807.91;5033156;28;20036;-81
2022/05/19 05:52:20;;;;;;;25.65;16.25;;;;;;;16.00;100.00;101810.66;5032118;28;20033;-79
2022/05/19 05:54:46;;;;;;;26.92;16.88;;;;;;;15.98;100.00;101801.88;5033206;28;20040;-80
2022/05/19 05:57:11;;;;;;;27.50;16.80;;;;;;;15.98;100.00;101795.66;5033513;28;20174;-80
2022/05/19 05:59:37;;;;;;;28.23;18.08;;;;;;;15.97;100.00;101785.91;5030157;28;20036;-81
2022/05/19 06:02:03;;;;;;;24.35;15.40;;;;;;;15.95;100.00;101775.31;5033262;28;20121;-80
2022/05/19 06:04:28;;;;;;;25.42;15.85;;;;;;;15.93;100.00;101752.31;5013059;28;20033;-79
2022/05/19 06:06:54;;;;;;;28.83;17.05;;;;;;;15.92;100.00;101737.22;5032985;28;20071;-80
2022/05/19 06:09:19;;;;;;;25.35;15.50;;;;;;;15.89;100.00;101714.19;5030875;28;20056;-80
2022/05/19 06:11:45;;;;;;;24.52;15.85;;;;;;;15.85;100.00;101697.47;5032100;28;20045;-80
2022/05/19 06:14:10;;;;;;;29.75;16.73;;;;;;;15.83;100.00;101688.69;5017030;28;20037;-80
2022/05/19 06:16:36;;;;;;;26.08;16.70;;;;;;;15.78;100.00;101677.41;4999192;28;20032;-82
2022/05/19 06:19:02;;;;;;;26.35;17.48;;;;;;;15.79;100.00;101721.84;5034425;28;20124;-81
2022/05/19 06:21:27;;;;;;;29.20;17.35;;;;;;;15.83;100.00;101758.13;5012797;28;20040;-81
2022/05/19 06:23:53;;;;;;;28.25;18.80;;;;;;;15.85;100.00;101769.56;4995617;28;20049;-81
2022/05/19 06:26:18;;;;;;;29.38;18.85;;;;;;;15.87;100.00;101740.97;4996327;28;20027;-81
2022/05/19 06:28:44;;;;;;;33.92;20.13;;;;;;;15.88;100.00;101726.69;5037771;28;20549;-82
2022/05/19 06:31:09;;;;;;;32.60;21.20;;;;;;;15.91;100.00;101724.81;5038553;28;20498;-80
2022/05/19 06:33:36;;;;;;;33.22;21.88;;;;;;;15.93;100.00;101709.59;5038356;28;20479;-80
2022/05/19 06:36:03;;;;;;;35.03;22.63;;;;;;;15.96;100.00;101717.44;5036715;28;20037;-81
2022/05/19 06:38:31;;;;;;;35.85;23.45;;;;;;;15.96;100.00;101706.75;5038329;28;20033;-81
2022/05/19 06:42:00;;;;;;;38.25;24.10;;;;;;;15.98;100.00;101700.38;5018836;28;20033;-81
2022/05/19 06:43:43;;;;;;;40.67;26.05;;;;;;;16.01;100.00;101694.88;5037209;28;20037;-79
2022/05/19 06:46:09;;;;;;;40.08;25.52;;;;;;;16.08;100.00;101714.06;5038547;28;20048;-80
2022/05/19 06:48:35;;;;;;;44.78;28.23;;;;;;;16.12;100.00;101715.63;5020044;28;20036;-80
2022/05/19 06:51:00;;;;;;;41.22;27.15;;;;;;;16.17;100.00;101728.72;5034772;28;20036;-81
2022/05/19 06:53:26;;;;;;;45.03;28.63;;;;;;;16.23;100.00;101730.22;5020020;28;20491;-80
2022/05/19 06:55:51;;;;;;;47.92;30.50;;;;;;;16.25;100.00;101747.03;5035190;28;20041;-80
2022/05/19 06:58:17;;;;;;;46.67;29.33;;;;;;;16.27;100.00;101755.81;5036581;28;20025;-80
2022/05/19 07:00:42;;;;;;;48.45;30.50;;;;;;;16.35;100.00;101744.72;5012635;28;20043;-81
2022/05/19 07:03:08;;;;;;;46.53;30.30;;;;;;;16.39;100.00;101741.78;5016667;28;21412;-81
2022/05/19 07:05:39;;;;;;;47.25;30.17;;;;;;;16.47;100.00;101740.47;5016855;28;20044;-81
2022/05/19 07:08:06;;;;;;;40.50;27.65;;;;;;;16.52;100.00;101743.75;4996564;28;20029;-81
2022/05/19 07:10:32;;;;;;;44.97;29.77;;;;;;;16.57;100.00;101749.72;5017236;28;20029;-81
2022/05/19 07:12:59;;;;;;;45.42;30.27;;;;;;;16.65;100.00;101758.16;5015059;28;20037;-81
2022/05/19 07:15:27;;;;;;;46.05;29.83;;;;;;;16.73;100.00;101759.53;5016699;28;20038;-81
2022/05/19 07:17:53;;;;;;;49.88;29.88;;;;;;;16.81;100.00;101762.63;5016032;28;20041;-80
2022/05/19 07:23:05;;;;;;;49.25;31.13;;;;;;;16.99;100.00;101759.84;4999387;28;20483;-81
2022/05/19 07:25:31;;;;;;;45.45;30.17;;;;;;;17.10;100.00;101757.41;5012309;28;20115;-80
2022/05/19 07:27:56;;;;;;;46.70;31.25;;;;;;;17.18;100.00;101749.81;5033584;28;20493;-81
2022/05/19 07:30:23;;;;;;;46.58;30.50;;;;;;;17.22;100.00;101746.00;5032435;28;20038;-80
2022/05/19 07:32:49;;;;;;;44.53;30.48;;;;;;;17.27;100.00;101744.88;5014259;28;20032;-81
2022/05/19 07:35:16;;;;;;;44.90;29.75;;;;;;;17.35;100.00;101739.91;5016160;28;20392;-79
2022/05/19 07:37:42;;;;;;;43.33;28.50;;;;;;;17.38;100.00;101745.09;5015432;28;20048;-78
2022/05/19 07:40:08;;;;;;;42.30;26.98;;;;;;;17.40;100.00;101743.19;5022476;28;20048;-78
2022/05/19 07:42:34;;;;;;;38.75;28.08;;;;;;;17.46;100.00;101733.91;5025068;28;20034;-81
2022/05/19 07:45:00;;;;;;;39.15;27.10;;;;;;;17.51;100.00;101735.38;5011735;28;20784;-80
2022/05/19 07:47:26;;;;;;;43.47;27.58;;;;;;;17.54;100.00;101733.44;5016520;28;20060;-81
2022/05/19 07:49:56;;;;;;;40.33;27.20;;;;;;;17.53;100.00;101731.72;5016299;28;20649;-81
2022/05/19 07:52:22;;;;;;;38.85;25.65;;;;;;;17.53;100.00;101726.38;5016954;28;20079;-80
2022/05/19 07:54:48;;;;;;;37.72;25.83;;;;;;;17.54;100.00;101722.75;5014233;28;21540;-81
2022/05/19 07:57:13;;;;;;;34.65;24.73;;;;;;;17.49;100.00;101726.53;5016700;28;20512;-81
2022/05/19 07:59:39;;;;;;;35.60;24.52;;;;;;;17.48;100.00;101731.97;5016107;28;20046;-79
2022/05/19 08:02:05;;;;;;;34.28;23.38;;;;;;;17.43;100.00;101740.31;5013515;28;20029;-81
2022/05/19 08:04:31;;;;;;;33.60;23.42;;;;;;;17.40;100.00;101737.81;5014762;28;20039;-80
2022/05/19 08:06:56;;;;;;;34.38;23.85;;;;;;;17.38;100.00;101747.78;5017123;28;20218;-80
2022/05/19 08:12:07;;;;;;;38.03;25.48;;;;;;;17.38;100.00;101745.09;5023766;28;20056;-81
2022/05/19 08:17:18;;;;;;;29.77;20.55;;;;;;;17.34;100.00;101755.09;5036412;28;20041;-80
2022/05/19 08:19:45;;;;;;;27.10;20.33;;;;;;;17.38;100.00;101755.78;5033928;28;20135;-79
2022/05/19 08:22:11;;;;;;;33.20;21.75;;;;;;;17.44;100.00;101755.41;5001642;28;20029;-79
2022/05/19 08:24:37;;;;;;;27.85;19.70;;;;;;;17.47;100.00;101760.59;5035689;28;20048;-80
2022/05/19 08:27:03;;;;;;;30.15;20.08;;;;;;;17.55;100.00;101761.94;5035546;28;20036;-80
2022/05/19 08:29:29;;;;;;;25.15;19.17;;;;;;;17.59;100.00;101769.69;5016950;28;20033;-82
2022/05/19 08:31:55;;;;;;;26.08;18.33;;;;;;;17.61;100.00;101778.47;5033258;28;20039;-82
2022/05/19 08:34:20;;;;;;;30.25;19.85;;;;;;;17.70;100.00;101784.25;5034953;28;20028;-80
2022/05/19 08:36:46;;;;;;;23.88;18.65;;;;;;;17.80;100.00;101784.53;5016774;28;20672;-81
2022/05/19 08:39:13;;;;;;;29.73;20.55;;;;;;;17.88;100.00;101785.78;5032816;28;20045;-79
2022/05/19 08:41:43;;;;;;;31.38;20.65;;;;;;;17.91;100.00;101784.72;5033225;28;20469;-80
2022/05/19 08:44:41;;;;;;;28.38;21.27;;;;;;;18.01;100.00;101785.88;5016021;28;20064;-80
2022/05/19 08:47:09;;;;;;;28.48;20.95;;;;;;;18.11;100.00;101779.97;5032174;28;20090;-82
2022/05/19 08:49:39;;;;;;;29.73;21.67;;;;;;;18.23;100.00;101789.94;5017206;28;20047;-79
2022/05/19 08:52:05;;;;;;;33.67;21.65;;;;;;;18.27;100.00;101802.19;5010171;28;20118;-81
2022/05/19 08:54:32;;;;;;;26.88;19.35;;;;;;;18.34;100.00;101801.81;5030663;28;20025;-80
2022/05/19 08:56:57;;;;;;;28.25;20.70;;;;;;;18.38;100.00;101803.31;5031707;28;20036;-80
2022/05/19 08:59:55;;;;;;;29.35;20.48;;;;;;;18.41;100.00;101808.50;5031926;28;20039;-78
2022/05/19 09:02:28;;;;;;;31.23;21.15;;;;;;;18.48;100.00;101809.81;5032792;28;20041;-78
2022/05/19 09:05:12;;;;;;;27.38;19.60;;;;;;;18.52;100.00;101805.97;5010770;28;20098;-79
2022/05/19 09:08:10;;;;;;;32.30;20.90;;;;;;;18.64;100.00;101809.69;5022531;28;20484;-79
2022/05/19 09:11:14;;;;;;;27.17;18.88;;;;;;;18.62;100.00;101797.34;5029720;28;20612;-83
2022/05/19 09:13:46;;;;;;;23.55;17.23;;;;;;;18.55;100.00;101800.44;4996068;28;20430;-83
2022/05/19 09:16:18;;;;;;;24.05;19.30;;;;;;;18.52;100.00;101795.25;5014630;28;20432;-81
2022/05/19 09:18:46;;;;;;;29.33;19.67;;;;;;;18.50;100.00;101770.38;5013205;28;20478;-80
2022/05/19 09:21:12;;;;;;;25.38;19.55;;;;;;;18.45;100.00;101773.34;4979789;28;20033;-82
2022/05/19 09:23:40;;;;;;;28.80;19.88;;;;;;;18.50;100.00;101772.16;4997208;28;20029;-82
2022/05/19 09:26:31;;;;;;;28.33;19.55;;;;;;;18.51;100.00;101766.72;4997801;28;20519;-80
2022/05/19 09:29:05;;;;;;;28.88;19.50;;;;;;;18.57;100.00;101778.84;5004487;28;20108;-81
2022/05/19 09:31:41;;;;;;;25.52;19.38;;;;;;;18.69;100.00;101753.91;5001811;28;20488;-81
2022/05/19 09:34:08;;;;;;;27.85;20.42;;;;;;;18.82;100.00;101748.63;5011872;28;20048;-81
2022/05/19 09:36:40;;;;;;;26.90;19.40;;;;;;;18.93;100.00;101752.41;5010752;28;20049;-81
2022/05/19 09:39:11;;;;;;;23.73;18.77;;;;;;;18.97;100.00;101725.25;4995432;28;20045;-81
2022/05/19 09:41:40;;;;;;;26.35;19.90;;;;;;;19.11;100.00;101712.75;4994057;28;20396;-80
2022/05/19 09:44:12;;;;;;;26.02;19.25;;;;;;;19.21;100.00;101710.31;5012013;28;20088;-79
2022/05/19 09:46:47;;;;;;;24.77;18.33;;;;;;;19.30;100.00;101717.75;4977996;28;20782;-83
2022/05/19 09:49:22;;;;;;;25.50;19.40;;;;;;;19.33;100.00;101701.41;5002376;28;20128;-82
2022/05/19 09:51:49;;;;;;;27.55;19.95;;;;;;;19.32;100.00;101705.06;5016866;28;20029;-82
2022/05/19 09:54:15;;;;;;;26.65;19.65;;;;;;;19.35;100.00;101712.91;5017275;28;20041;-82
2022/05/19 09:56:47;;;;;;;23.23;18.73;;;;;;;19.43;100.00;101709.69;5017726;28;20061;-81
2022/05/19 09:59:19;;;;;;;25.90;18.77;;;;;;;19.58;100.00;101702.41;5014494;28;20131;-80
2022/05/19 10:01:47;;;;;;;23.02;16.45;;;;;;;19.78;100.00;101694.75;4999808;28;20036;-82
2022/05/19 10:04:18;;;;;;;23.70;17.08;;;;;;;19.94;100.00;101692.66;5018329;28;20037;-80
2022/05/19 10:06:50;;;;;;;22.85;17.20;;;;;;;20.04;100.00;101675.94;4999555;28;20041;-79
2022/05/19 10:09:18;;;;;;;20.00;15.82;;;;;;;20.13;100.00;101672.56;5015940;28;20029;-80
2022/05/19 10:11:54;;;;;;;22.70;16.13;;;;;;;20.17;100.00;101649.88;5018509;28;20088;-81
2022/05/19 10:14:31;;;;;;;19.67;15.07;;;;;;;20.18;100.00;101621.16;5019243;28;20033;-78
2022/05/19 10:16:57;;;;;;;22.25;14.63;;;;;;;20.15;100.00;101616.84;5021174;28;20033;-79
2022/05/19 10:19:44;;;;;;;17.83;12.70;;;;;;;20.15;100.00;101602.56;5024610;28;20017;-80
2022/05/19 10:22:33;;;;;;;20.23;14.70;;;;;;;20.18;100.00;101600.50;5041198;28;20028;-79
2022/05/19 10:25:18;;;;;;;19.27;14.27;;;;;;;20.29;100.00;101615.84;5006530;28;20071;-78
2022/05/19 10:31:05;;;;;;;18.05;14.57;;;;;;;20.43;100.00;101613.94;5038028;28;20037;-79
2022/05/19 10:33:49;;;;;;;17.08;13.57;;;;;;;20.48;100.00;101619.81;5023000;28;20048;-80
2022/05/19 10:36:37;;;;;;;21.02;14.18;;;;;;;20.56;100.00;101619.25;5036782;28;20610;-83
2022/05/19 10:39:37;;;;;;;18.50;14.35;;;;;;;20.79;100.00;101613.91;5009159;28;20055;-81
2022/05/19 10:42:10;;;;;;;17.17;12.20;;;;;;;20.99;100.00;101610.59;5018617;28;20975;-79
2022/05/19 10:45:10;;;;;;;16.33;11.55;;;;;;;21.18;100.00;101601.06;5011767;28;20122;-78
2022/05/19 10:48:04;;;;;;;15.48;11.60;;;;;;;21.36;100.00;101600.59;5014170;28;20456;-80
2022/05/19 10:50:36;;;;;;;13.40;9.88;;;;;;;21.43;100.00;101589.22;5031772;28;20193;-78
2022/05/19 10:53:04;;;;;;;13.32;9.50;;;;;;;21.50;100.00;101581.47;5032936;28;20032;-77
2022/05/19 10:55:49;;;;;;;11.07;8.07;;;;;;;21.60;99.14;101583.41;5036920;28;20065;-76
2022/05/19 10:58:27;;;;;;;10.68;8.77;;;;;;;21.67;99.80;101574.72;5034238;28;20039;-77
2022/05/19 11:01:14;;;;;;;11.82;8.70;;;;;;;21.78;99.14;101570.34;5036905;28;20037;-76
2022/05/19 11:03:55;;;;;;;11.82;8.88;;;;;;;21.89;99.00;101573.00;5017877;28;20040;-78
2022/05/19 11:06:27;;;;;;;9.85;8.55;;;;;;;21.99;98.70;101570.38;5018621;28;20121;-80
2022/05/19 11:09:13;;;;;;;11.57;8.48;;;;;;;22.00;97.71;101566.72;5018977;28;20350;-78
2022/05/19 11:11:50;;;;;;;12.68;8.68;;;;;;;21.99;98.02;101562.31;5015422;28;20037;-79
2022/05/19 11:14:43;;;;;;;8.27;6.95;;;;;;;21.97;96.42;101558.88;5016723;28;20480;-76
2022/05/19 11:17:17;;;;;;;7.03;5.55;;;;;;;21.97;94.15;101569.66;5013536;28;20543;-75
2022/05/19 11:19:52;;;;;;;8.63;5.15;;;;;;;21.93;94.68;101577.16;5015457;28;20120;-77
2022/05/19 11:22:24;;;;;;;6.72;4.80;;;;;;;21.88;93.97;101594.66;5014598;28;20120;-76
2022/05/19 11:27:48;;;;;;;7.43;5.45;;;;;;;21.66;90.70;101607.16;5020488;28;20047;-78